Taos, NM

3:38 AM MDT on July 29, 2016 (GMT -0600)
Blueberry Hill | | Change Station

Elev 7064 ft 36.43 °N, 105.60 °W | Updated 7 minutes ago

Clear
Clear
62.2 °F
Feels Like 62.2 °F
N
4.2
Wind Variable Wind from ENE

Today
High -- | Low -- °F
--% Chance of Precip.
Yesterday
High -- | Low -- °F
Precip. -- in
Pressure 30.32 in
Visibility 10.0 miles
Clouds Clear
Dew Point 45 °F
Humidity 53%
Rainfall 0.00 in
Snow Depth Not available.
6:06 AM 8:10 PM
Waning Crescent, 23% visible
METAR KSKX 290935Z AUTO 31008KT 10SM VCTS CLR 15/01 A3032 RMK AO1 TSB18
Pressure 30.32 in
Visibility 10.0 miles
Clouds Clear
Dew Point 45 °F
Humidity 53%
Rainfall 0.00 in
Snow Depth Not available.
6:06 AM 8:10 PM
Waning Crescent, 23% visible
METAR KSKX 290935Z AUTO 31008KT 10SM VCTS CLR 15/01 A3032 RMK AO1 TSB18

10-Day Weather Forecast

Almanac

Astronomy

Jul. 29, 2016 Rise Set
Actual Time
Civil Twilight
Nautical Twilight
Astronomical Twilight
Moon
Length of Visible Light
Length of Day
Tomorrow will be .
, % of the Moon is Illuminated

Today's Extremes

State Highs State Lows

Community

WunderPhotos

Upload Photos

1,928,300 photos uploaded!

WunderBlog® & News

Nearby

Air Quality

  Air Quality AQ Index Pollutant
Not available.

Snow Depth

Station Depth Elevation

Earthquake Activity

City Distance Mag. Time & Date
Minimum magnitude displayed is 2.5.

Coastal Water Temperatures

Place Temperature

Stations

Nearby Weather Stations

Station Location Temp. Windchill Dew Point Humidity Wind Precip. Elev Updated Type
                   

Watches & Warnings

There are currently no watches in effect.